South Bend, Texas
Current Conditions -  °F | °C
As of 7:10 AM on Sunday 21 Dec 2014 (Local Time) from KRPH Reporting Station
Overcast Overcast  
Wind Chill: 42°   Ceiling: 900
Heat Index: 46°   Visibility: 7mi
Dew Point: 44°   Wind: 7mph
Humidity: 93%   Direction: 140°SE
Pressure: 30.03"   Gusts: NA
Location:  33.01°N, 98.66°W
Report Text: KRPH 211310Z AUTO 14006KT 7SM BKN009 OVC016 08/07 A3003 RMK AO2 T00780067
Loading
Personal Weather Stations






























Interactive Weather Map New forecast layout! Learn more

10-Day Weather Forecast

Advertisements
Track Severe Weather on mobile